createdAt,value
2018-07-15T00:02:24.443Z,8.60
2018-07-15T00:04:52.855Z,8.63
2018-07-15T00:07:21.300Z,8.87
2018-07-15T00:09:49.695Z,7.93
2018-07-15T00:12:18.074Z,8.00
2018-07-15T00:14:46.447Z,8.37
2018-07-15T00:17:14.904Z,7.80
2018-07-15T00:19:43.322Z,8.03
2018-07-15T00:22:11.729Z,8.60
2018-07-15T00:24:40.156Z,8.07
2018-07-15T00:27:08.671Z,7.50
2018-07-15T00:29:37.142Z,8.20
2018-07-15T00:32:05.842Z,7.90
2018-07-15T00:34:34.334Z,7.93
2018-07-15T00:37:02.839Z,7.97
2018-07-15T00:39:31.268Z,7.40
2018-07-15T00:41:59.669Z,8.03
2018-07-15T00:44:28.603Z,8.53
2018-07-15T00:46:56.986Z,8.20
2018-07-15T00:49:25.376Z,8.53
2018-07-15T00:51:54.067Z,8.60
2018-07-15T00:54:22.613Z,8.40
2018-07-15T00:56:51.059Z,7.93
2018-07-15T00:59:19.449Z,8.63
2018-07-15T01:01:47.755Z,8.67
2018-07-15T01:04:16.236Z,8.67
2018-07-15T01:06:44.614Z,9.17
2018-07-15T01:09:12.987Z,8.70
2018-07-15T01:11:41.311Z,8.40
2018-07-15T01:14:10.051Z,8.47
2018-07-15T01:16:39.806Z,7.40
2018-07-15T01:19:08.180Z,7.63
2018-07-15T01:21:36.657Z,7.13
2018-07-15T01:24:05.038Z,7.70
2018-07-15T01:26:33.411Z,7.47
2018-07-15T01:29:01.828Z,7.93
2018-07-15T01:31:30.178Z,7.97
2018-07-15T01:33:58.669Z,8.17
2018-07-15T01:36:26.992Z,8.20
2018-07-15T01:38:55.310Z,7.87
2018-07-15T01:41:23.899Z,8.47
2018-07-15T01:43:52.196Z,8.13
2018-07-15T01:46:20.576Z,8.07
2018-07-15T01:48:49.019Z,8.83
2018-07-15T01:51:17.427Z,8.37
2018-07-15T01:53:45.840Z,8.07
2018-07-15T01:56:14.237Z,7.30
2018-07-15T01:58:42.558Z,7.50
2018-07-15T02:01:10.918Z,6.87
2018-07-15T02:03:39.286Z,7.10
2018-07-15T02:06:07.663Z,7.33
2018-07-15T02:08:36.121Z,7.50
2018-07-15T02:11:04.599Z,7.47
2018-07-15T02:13:33.008Z,7.93
2018-07-15T02:16:01.309Z,7.90
2018-07-15T02:18:29.838Z,7.30
2018-07-15T02:20:58.258Z,7.43
2018-07-15T02:23:26.882Z,9.23
2018-07-15T02:25:55.233Z,7.30
2018-07-15T02:28:23.612Z,6.87
2018-07-15T02:30:51.998Z,7.20
2018-07-15T02:33:20.501Z,7.83
2018-07-15T02:35:48.890Z,8.30
2018-07-15T02:38:17.259Z,7.87
2018-07-15T02:40:45.732Z,8.00
2018-07-15T02:43:14.100Z,8.00
2018-07-15T02:45:42.541Z,8.60
2018-07-15T02:48:10.931Z,8.23
2018-07-15T02:50:39.411Z,7.70
2018-07-15T02:53:07.782Z,7.10
2018-07-15T02:55:36.121Z,7.17
2018-07-15T02:58:04.591Z,7.77
2018-07-15T03:00:33.122Z,7.60
2018-07-15T03:03:01.659Z,7.53
2018-07-15T03:05:30.051Z,8.13
2018-07-15T03:07:58.507Z,8.23
2018-07-15T03:10:26.659Z,8.03
2018-07-15T03:12:55.093Z,7.43
2018-07-15T03:15:23.494Z,7.77
2018-07-15T03:17:51.977Z,7.93
2018-07-15T03:20:20.403Z,8.33
2018-07-15T03:22:48.742Z,7.90
2018-07-15T03:25:17.206Z,7.93
2018-07-15T03:27:45.554Z,7.63
2018-07-15T03:30:13.605Z,7.87
2018-07-15T03:32:42.006Z,8.23
2018-07-15T03:35:10.343Z,8.30
2018-07-15T03:37:38.692Z,8.27
2018-07-15T03:40:07.083Z,8.53
2018-07-15T03:42:35.468Z,9.10
2018-07-15T03:45:03.841Z,8.90
2018-07-15T03:47:32.191Z,8.30
2018-07-15T03:50:01.056Z,8.07
2018-07-15T03:52:29.322Z,8.63
2018-07-15T03:54:57.579Z,7.93
2018-07-15T03:57:25.888Z,8.63
2018-07-15T03:59:53.909Z,8.27
2018-07-15T04:02:22.171Z,7.53
2018-07-15T04:04:50.516Z,7.93
2018-07-15T04:07:18.780Z,7.60
2018-07-15T04:09:47.061Z,7.90
2018-07-15T04:12:15.326Z,7.27
2018-07-15T04:14:43.584Z,7.17
2018-07-15T04:17:11.902Z,7.20
2018-07-15T04:19:40.159Z,6.60
2018-07-15T04:22:08.444Z,7.43
2018-07-15T04:24:36.712Z,7.33
2018-07-15T04:27:05.155Z,7.53
2018-07-15T04:29:33.422Z,6.87
2018-07-15T04:32:01.877Z,6.93
2018-07-15T04:34:30.148Z,7.30
2018-07-15T04:36:58.579Z,6.83
2018-07-15T04:39:26.902Z,7.10
2018-07-15T04:41:55.160Z,7.17
2018-07-15T04:44:23.442Z,7.03
2018-07-15T04:46:51.446Z,7.30
2018-07-15T04:49:19.752Z,7.20
2018-07-15T04:51:48.024Z,6.63
2018-07-15T04:54:16.300Z,7.07
2018-07-15T04:56:44.571Z,6.87
2018-07-15T04:59:12.863Z,7.17
2018-07-15T05:01:42.381Z,6.53
2018-07-15T05:04:11.814Z,7.03
2018-07-15T05:06:40.074Z,7.00
2018-07-15T05:09:08.356Z,7.70
2018-07-15T05:11:37.502Z,7.57
2018-07-15T05:14:06.034Z,7.60
2018-07-15T05:16:34.299Z,7.70
2018-07-15T05:19:02.556Z,7.53
2018-07-15T05:21:30.851Z,7.87
2018-07-15T05:23:59.346Z,8.10
2018-07-15T05:26:27.636Z,7.70
2018-07-15T05:28:55.923Z,7.27
2018-07-15T05:31:24.190Z,7.57
2018-07-15T05:33:52.454Z,7.20
2018-07-15T05:36:20.736Z,7.57
2018-07-15T05:38:49.018Z,6.97
2018-07-15T05:41:17.301Z,7.00
2018-07-15T05:43:45.669Z,7.73
2018-07-15T05:46:13.925Z,6.90
2018-07-15T05:48:42.457Z,7.43
2018-07-15T05:51:10.764Z,6.83
2018-07-15T05:53:39.023Z,7.33
2018-07-15T05:56:07.393Z,7.33
2018-07-15T05:58:38.814Z,6.83
2018-07-15T06:01:07.411Z,6.70
2018-07-15T06:03:35.724Z,6.67
2018-07-15T06:06:04.654Z,6.87
2018-07-15T06:08:32.954Z,6.73
2018-07-15T06:11:01.696Z,6.40
2018-07-15T06:13:30.124Z,6.37
2018-07-15T06:15:59.293Z,6.97
2018-07-15T06:18:28.775Z,6.50
2018-07-15T06:20:57.179Z,6.00
2018-07-15T06:23:25.572Z,6.30
2018-07-15T06:25:53.835Z,5.93
2018-07-15T06:28:22.102Z,6.00
2018-07-15T06:30:50.396Z,6.23
2018-07-15T06:33:18.713Z,6.10
2018-07-15T06:35:47.025Z,6.03
2018-07-15T06:38:17.005Z,6.20
2018-07-15T06:40:45.437Z,5.40
2018-07-15T06:43:13.805Z,5.73
2018-07-15T06:45:42.091Z,4.97
2018-07-15T06:48:10.377Z,5.50
2018-07-15T06:50:38.653Z,4.73
2018-07-15T06:53:07.062Z,4.43
2018-07-15T06:55:35.335Z,3.60
2018-07-15T06:58:03.609Z,4.20
2018-07-15T07:00:33.005Z,3.95
2018-07-15T07:03:01.306Z,3.98
2018-07-15T07:05:29.611Z,3.45
2018-07-15T07:07:57.975Z,3.30
2018-07-15T07:10:26.939Z,3.50
2018-07-15T07:12:55.014Z,3.00
2018-07-15T07:15:23.344Z,2.92
2018-07-15T07:17:52.534Z,2.98
2018-07-15T07:20:21.051Z,3.05
2018-07-15T07:22:49.419Z,3.25
2018-07-15T07:25:17.747Z,3.08
2018-07-15T07:27:46.048Z,2.92
2018-07-15T07:30:14.356Z,2.75
2018-07-15T07:32:42.655Z,3.40
2018-07-15T07:35:10.956Z,3.20
2018-07-15T07:37:39.283Z,3.42
2018-07-15T07:40:07.722Z,3.45
2018-07-15T07:42:36.160Z,3.40
2018-07-15T07:45:04.623Z,3.20
2018-07-15T07:47:32.930Z,3.30
2018-07-15T07:50:01.276Z,3.30
2018-07-15T07:52:29.802Z,3.25
2018-07-15T07:54:58.182Z,3.40
2018-07-15T07:57:26.855Z,3.27
2018-07-15T07:59:54.906Z,3.50
2018-07-15T08:02:23.263Z,2.90
2018-07-15T08:04:51.471Z,3.30
2018-07-15T08:07:19.787Z,4.12
2018-07-15T08:09:48.336Z,3.45
2018-07-15T08:12:16.697Z,3.90
2018-07-15T08:14:45.004Z,3.72
2018-07-15T08:17:13.308Z,3.60
2018-07-15T08:19:41.801Z,3.75
2018-07-15T08:22:10.127Z,4.03
2018-07-15T08:24:38.446Z,3.95
2018-07-15T08:27:06.982Z,4.30
2018-07-15T08:29:35.368Z,4.08
2018-07-15T08:32:03.639Z,4.05
2018-07-15T08:34:31.885Z,4.15
2018-07-15T08:37:00.138Z,4.00
2018-07-15T08:39:28.394Z,4.20
2018-07-15T08:41:56.733Z,4.17
2018-07-15T08:44:25.029Z,4.28
2018-07-15T08:46:53.288Z,4.00
2018-07-15T08:49:21.635Z,3.60
2018-07-15T08:51:49.948Z,4.40
2018-07-15T08:54:18.221Z,4.37
2018-07-15T08:56:46.571Z,4.15
2018-07-15T08:59:14.600Z,4.40
2018-07-15T09:01:42.876Z,3.98
2018-07-15T09:04:11.171Z,4.20
2018-07-15T09:06:39.439Z,3.87
2018-07-15T09:09:07.702Z,3.80
2018-07-15T09:11:36.115Z,4.05
2018-07-15T09:14:04.486Z,4.10
2018-07-15T09:16:32.755Z,4.20
2018-07-15T09:19:01.037Z,3.90
2018-07-15T09:21:29.386Z,4.08
2018-07-15T09:23:57.807Z,3.58
2018-07-15T09:26:26.142Z,3.42
2018-07-15T09:28:54.437Z,3.05
2018-07-15T09:31:22.750Z,3.70
2018-07-15T09:33:51.013Z,3.50
2018-07-15T09:36:19.364Z,3.27
2018-07-15T09:38:48.931Z,3.30
2018-07-15T09:41:17.322Z,3.30
2018-07-15T09:43:45.619Z,3.20
2018-07-15T09:46:13.902Z,3.35
2018-07-15T09:48:42.226Z,3.10
2018-07-15T09:51:10.589Z,3.55
2018-07-15T09:53:38.859Z,3.85
2018-07-15T09:56:07.395Z,3.60
2018-07-15T09:58:35.731Z,3.87
2018-07-15T10:01:04.011Z,3.52
2018-07-15T10:03:32.278Z,3.60
2018-07-15T10:06:00.585Z,3.52
2018-07-15T10:08:28.923Z,3.50
2018-07-15T10:10:57.175Z,3.27
2018-07-15T10:13:25.652Z,3.30
2018-07-15T10:15:53.952Z,3.22
2018-07-15T10:18:22.215Z,3.70
2018-07-15T10:20:50.563Z,3.40
2018-07-15T10:23:18.819Z,3.12
2018-07-15T10:25:47.075Z,3.70
2018-07-15T10:28:15.401Z,3.25
2018-07-15T10:30:43.405Z,3.83
2018-07-15T10:33:11.744Z,3.40
2018-07-15T10:35:39.975Z,3.40
2018-07-15T10:38:08.312Z,3.37
2018-07-15T10:40:36.639Z,3.15
2018-07-15T10:43:04.903Z,3.30
2018-07-15T10:45:33.208Z,3.52
2018-07-15T10:48:01.523Z,3.52
2018-07-15T10:50:29.808Z,3.40
2018-07-15T10:52:58.092Z,3.52
2018-07-15T10:55:26.351Z,3.50
2018-07-15T10:57:54.934Z,3.20
2018-07-15T11:00:23.276Z,3.77
2018-07-15T11:02:51.299Z,3.80
2018-07-15T11:05:19.593Z,3.77
2018-07-15T11:07:48.090Z,4.05
2018-07-15T11:10:16.410Z,3.50
2018-07-15T11:12:44.710Z,3.87
2018-07-15T11:15:13.016Z,3.37
2018-07-15T11:17:41.286Z,3.55
2018-07-15T11:20:09.559Z,3.80
2018-07-15T11:22:37.936Z,3.42
2018-07-15T11:25:06.253Z,3.35
2018-07-15T11:27:34.567Z,3.42
2018-07-15T11:30:02.882Z,3.12
2018-07-15T11:32:31.260Z,3.25
2018-07-15T11:34:59.580Z,3.27
2018-07-15T11:37:27.988Z,3.45
2018-07-15T11:39:56.415Z,3.25
2018-07-15T11:42:24.709Z,3.92
2018-07-15T11:44:52.973Z,3.90
2018-07-15T11:47:21.242Z,3.83
2018-07-15T11:49:49.520Z,3.83
2018-07-15T11:52:17.815Z,3.87
2018-07-15T11:54:46.093Z,3.60
2018-07-15T11:57:14.383Z,3.55
2018-07-15T11:59:51.836Z,3.08
2018-07-15T12:02:25.301Z,3.17
2018-07-15T12:05:32.679Z,3.42
2018-07-15T12:08:02.142Z,3.47
2018-07-15T12:10:30.423Z,3.60
2018-07-15T12:12:58.736Z,2.95
2018-07-15T12:15:27.027Z,3.67
2018-07-15T12:17:55.320Z,3.22
2018-07-15T12:20:23.665Z,3.17
2018-07-15T12:22:52.023Z,3.40
2018-07-15T12:25:20.303Z,3.17
2018-07-15T12:27:48.342Z,3.00
2018-07-15T12:30:16.626Z,3.10
2018-07-15T12:32:44.910Z,3.42
2018-07-15T12:35:13.183Z,3.37
2018-07-15T12:37:41.466Z,3.35
2018-07-15T12:40:09.752Z,3.45
2018-07-15T12:42:38.046Z,3.10
2018-07-15T12:45:06.343Z,3.02
2018-07-15T12:47:34.638Z,3.27
2018-07-15T12:50:03.047Z,3.27
2018-07-15T12:52:32.399Z,3.20
2018-07-15T12:55:01.039Z,2.90
2018-07-15T12:57:29.417Z,2.80
2018-07-15T12:59:58.069Z,3.00
2018-07-15T13:02:26.642Z,2.58
2018-07-15T13:04:54.923Z,3.02
2018-07-15T13:07:23.184Z,2.58
2018-07-15T13:09:51.473Z,2.85
2018-07-15T13:12:19.753Z,3.17
2018-07-15T13:14:48.027Z,2.87
2018-07-15T13:17:16.367Z,2.58
2018-07-15T13:19:44.699Z,3.08
2018-07-15T13:22:13.004Z,2.83
2018-07-15T13:24:41.318Z,3.17
2018-07-15T13:27:09.800Z,2.80
2018-07-15T13:29:38.097Z,2.92
2018-07-15T13:32:06.604Z,2.80
2018-07-15T13:34:34.875Z,3.27
2018-07-15T13:37:03.167Z,2.85
2018-07-15T13:39:32.418Z,2.80
2018-07-15T13:44:41.709Z,3.05
2018-07-15T13:47:10.060Z,2.92
2018-07-15T13:49:38.396Z,3.40
2018-07-15T13:52:06.853Z,3.10
2018-07-15T13:54:35.217Z,3.72
2018-07-15T13:57:03.632Z,3.47
2018-07-15T13:59:32.011Z,3.65
2018-07-15T14:02:00.318Z,3.12
2018-07-15T14:04:28.617Z,3.55
2018-07-15T14:06:57.001Z,3.80
2018-07-15T14:09:25.297Z,3.30
2018-07-15T14:11:53.639Z,3.30
2018-07-15T14:14:21.921Z,3.47
2018-07-15T14:16:50.205Z,3.40
2018-07-15T14:19:18.497Z,3.33
2018-07-15T14:21:46.790Z,3.83
2018-07-15T14:24:15.142Z,3.65
2018-07-15T14:26:43.721Z,4.55
2018-07-15T14:29:12.088Z,5.83
2018-07-15T14:31:40.617Z,6.47
2018-07-15T14:34:09.144Z,6.43
2018-07-15T14:36:37.450Z,7.50
2018-07-15T14:39:06.211Z,10.63
2018-07-15T14:41:34.724Z,9.90
2018-07-15T14:44:03.116Z,7.97
2018-07-15T14:46:31.543Z,11.17
2018-07-15T14:48:59.902Z,9.27
2018-07-15T14:51:28.265Z,6.50
2018-07-15T14:53:56.605Z,6.90
2018-07-15T14:56:25.143Z,7.27
2018-07-15T14:58:54.169Z,9.43
2018-07-15T15:01:22.602Z,9.40
2018-07-15T15:03:51.270Z,12.00
2018-07-15T15:06:19.741Z,11.97
2018-07-15T15:08:48.133Z,9.33
2018-07-15T15:11:16.506Z,8.03
2018-07-15T15:13:44.894Z,9.47
2018-07-15T15:16:13.287Z,7.80
2018-07-15T15:18:41.901Z,8.93
2018-07-15T15:21:10.652Z,9.27
2018-07-15T15:23:39.036Z,10.23
2018-07-15T15:26:07.447Z,9.07
2018-07-15T15:28:35.882Z,7.13
2018-07-15T15:31:04.281Z,7.57
2018-07-15T15:33:33.044Z,7.73
2018-07-15T15:36:01.362Z,8.47
2018-07-15T15:38:29.750Z,9.23
2018-07-15T15:40:58.170Z,8.37
2018-07-15T15:43:26.576Z,11.77
2018-07-15T15:45:55.050Z,12.13
2018-07-15T15:48:23.445Z,8.83
2018-07-15T15:50:52.056Z,13.30
2018-07-15T15:53:20.442Z,11.67
2018-07-15T15:55:48.948Z,13.40
2018-07-15T15:58:17.454Z,15.57
2018-07-15T16:00:46.228Z,14.37
2018-07-15T16:03:14.808Z,12.27
2018-07-15T16:05:43.364Z,12.77
2018-07-15T16:08:11.878Z,11.83
2018-07-15T16:10:40.419Z,7.97
2018-07-15T16:13:08.875Z,9.60
2018-07-15T16:15:37.678Z,11.00
2018-07-15T16:18:06.454Z,9.90
2018-07-15T16:20:34.549Z,10.17
2018-07-15T16:23:02.953Z,11.33
2018-07-15T16:25:31.321Z,8.70
2018-07-15T16:27:59.902Z,9.80
2018-07-15T16:30:29.098Z,9.00
2018-07-15T16:32:57.549Z,9.77
2018-07-15T16:35:25.846Z,10.20
2018-07-15T16:37:54.482Z,9.97
2018-07-15T16:40:22.967Z,10.63
2018-07-15T16:42:51.457Z,11.20
2018-07-15T16:45:21.032Z,9.60
2018-07-15T16:47:49.762Z,10.23
2018-07-15T16:50:18.074Z,10.90
2018-07-15T16:52:46.412Z,10.57
2018-07-15T16:55:14.778Z,10.33
2018-07-15T16:57:43.190Z,10.93
2018-07-15T17:00:11.484Z,11.07
2018-07-15T17:02:39.635Z,11.43
2018-07-15T17:05:07.947Z,11.93
2018-07-15T17:07:36.246Z,12.40
2018-07-15T17:10:04.609Z,11.23
2018-07-15T17:12:32.982Z,10.70
2018-07-15T17:15:01.926Z,12.27
2018-07-15T17:17:30.280Z,11.87
2018-07-15T17:19:58.619Z,11.30
2018-07-15T17:22:26.927Z,12.57
2018-07-15T17:24:55.026Z,11.43
2018-07-15T17:27:23.445Z,13.07
2018-07-15T17:29:52.173Z,13.27
2018-07-15T17:32:20.640Z,12.50
2018-07-15T17:34:49.085Z,12.17
2018-07-15T17:37:17.518Z,12.53
2018-07-15T17:39:45.876Z,13.20
2018-07-15T17:42:14.218Z,15.00
2018-07-15T17:44:42.551Z,14.50
2018-07-15T17:47:10.957Z,12.87
2018-07-15T17:49:39.274Z,11.83
2018-07-15T17:52:07.707Z,11.37
2018-07-15T17:54:36.013Z,11.53
2018-07-15T17:57:04.326Z,12.63
2018-07-15T17:59:32.619Z,12.80
2018-07-15T18:02:01.002Z,11.00
2018-07-15T18:04:29.340Z,12.63
2018-07-15T18:06:57.863Z,10.43
2018-07-15T18:09:26.218Z,10.03
2018-07-15T18:11:55.526Z,10.67
2018-07-15T18:14:24.487Z,10.07
2018-07-15T18:16:52.785Z,10.27
2018-07-15T18:19:21.395Z,10.93
2018-07-15T18:21:49.707Z,11.00
2018-07-15T18:24:18.162Z,10.67
2018-07-15T18:26:46.261Z,10.77
2018-07-15T18:29:14.546Z,8.57
2018-07-15T18:31:42.841Z,8.07
2018-07-15T18:34:11.171Z,7.77
2018-07-15T18:36:39.510Z,8.30
2018-07-15T18:39:07.849Z,9.77
2018-07-15T18:41:36.166Z,9.77
2018-07-15T18:44:04.477Z,10.17
2018-07-15T18:46:32.558Z,10.73
2018-07-15T18:49:00.936Z,9.50
2018-07-15T18:51:29.299Z,10.33
2018-07-15T18:53:58.459Z,11.17
2018-07-15T18:56:26.769Z,10.90
2018-07-15T18:58:55.154Z,11.73
2018-07-15T19:01:23.417Z,10.57
2018-07-15T19:03:51.746Z,11.00
2018-07-15T19:06:20.096Z,11.57
2018-07-15T19:08:48.430Z,11.53
2018-07-15T19:11:16.807Z,12.20
2018-07-15T19:13:45.140Z,11.30
2018-07-15T19:16:13.247Z,12.90
2018-07-15T19:18:41.560Z,14.33
2018-07-15T19:21:09.911Z,13.63
2018-07-15T19:23:38.299Z,13.87
2018-07-15T19:26:06.618Z,14.40
2018-07-15T19:28:35.252Z,14.00
2018-07-15T19:31:03.597Z,14.63
2018-07-15T19:33:32.389Z,14.17
2018-07-15T19:36:00.768Z,15.63
2018-07-15T19:38:29.170Z,16.17
2018-07-15T19:40:57.500Z,15.40
2018-07-15T19:43:25.897Z,15.57
2018-07-15T19:45:54.737Z,13.97
2018-07-15T19:48:23.171Z,14.67
2018-07-15T19:50:51.510Z,14.97
2018-07-15T19:53:20.252Z,16.07
2018-07-15T19:55:48.579Z,17.50
2018-07-15T19:58:16.933Z,15.70
2018-07-15T20:00:45.248Z,17.07
2018-07-15T20:03:13.560Z,17.20
2018-07-15T20:05:42.006Z,19.13
2018-07-15T20:08:10.361Z,18.10
2018-07-15T20:10:38.975Z,17.33
2018-07-15T20:13:07.653Z,18.03
2018-07-15T20:15:36.045Z,16.07
2018-07-15T20:18:04.431Z,17.27
2018-07-15T20:20:32.835Z,16.60
2018-07-15T20:23:01.244Z,18.53
2018-07-15T20:25:29.667Z,17.73
2018-07-15T20:27:58.056Z,16.23
2018-07-15T20:30:26.461Z,16.00
2018-07-15T20:32:54.768Z,16.00
2018-07-15T20:35:23.147Z,18.33
2018-07-15T20:37:51.452Z,17.50
2018-07-15T20:40:19.861Z,18.00
2018-07-15T20:42:49.634Z,18.27
2018-07-15T20:45:18.549Z,18.27
2018-07-15T20:47:46.811Z,16.83
2018-07-15T20:50:15.173Z,15.70
2018-07-15T20:52:43.399Z,17.40
2018-07-15T20:55:11.817Z,17.37
2018-07-15T20:57:40.201Z,17.80
2018-07-15T21:00:08.586Z,17.17
2018-07-15T21:02:36.951Z,19.33
2018-07-15T21:05:05.335Z,16.67
2018-07-15T21:07:33.696Z,17.10
2018-07-15T21:10:02.114Z,17.00
2018-07-15T21:12:30.211Z,17.77
2018-07-15T21:14:58.621Z,18.33
2018-07-15T21:17:26.999Z,17.20
2018-07-15T21:19:55.387Z,17.63
2018-07-15T21:22:23.732Z,18.77
2018-07-15T21:24:52.281Z,19.37
2018-07-15T21:27:20.743Z,20.73
2018-07-15T21:29:49.181Z,23.87
2018-07-15T21:32:17.575Z,24.73
2018-07-15T21:34:45.919Z,23.43
2018-07-15T21:37:14.363Z,22.33
2018-07-15T21:39:42.745Z,19.00
2018-07-15T21:42:11.172Z,21.97
2018-07-15T21:44:39.506Z,19.87
2018-07-15T21:47:07.997Z,21.13
2018-07-15T21:49:36.364Z,25.33
2018-07-15T21:52:04.735Z,23.67
2018-07-15T21:54:33.142Z,22.80
2018-07-15T21:57:01.551Z,24.33
2018-07-15T21:59:29.965Z,22.67
2018-07-15T22:01:58.420Z,21.57
2018-07-15T22:04:26.844Z,22.27
2018-07-15T22:07:06.732Z,20.60
2018-07-15T22:09:57.493Z,20.50
2018-07-15T22:12:25.894Z,21.27
2018-07-15T22:14:54.294Z,22.83
2018-07-15T22:17:22.700Z,23.40
2018-07-15T22:19:51.066Z,24.50
2018-07-15T22:22:19.511Z,25.73
2018-07-15T22:24:47.861Z,26.77
2018-07-15T22:27:16.256Z,25.80
2018-07-15T22:29:44.631Z,26.90
2018-07-15T22:32:13.102Z,26.87
2018-07-15T22:34:41.532Z,29.30
2018-07-15T22:37:10.033Z,26.43
2018-07-15T22:39:38.441Z,27.33
2018-07-15T22:42:07.075Z,24.17
2018-07-15T22:44:35.453Z,24.73
2018-07-15T22:47:03.805Z,23.50
2018-07-15T22:49:32.247Z,22.70
2018-07-15T22:52:00.658Z,21.60
2018-07-15T22:54:29.071Z,21.90
2018-07-15T22:56:57.519Z,22.83
2018-07-15T22:59:25.948Z,23.57
2018-07-15T23:01:54.353Z,22.17
2018-07-15T23:05:41.267Z,23.30
2018-07-15T23:08:09.959Z,25.13
2018-07-15T23:10:38.442Z,23.13
2018-07-15T23:13:07.793Z,22.83
2018-07-15T23:15:36.696Z,20.63
2018-07-15T23:18:05.116Z,20.53
2018-07-15T23:20:34.336Z,19.50
2018-07-15T23:23:03.679Z,19.07
2018-07-15T23:25:32.571Z,20.47
2018-07-15T23:28:01.783Z,19.77
2018-07-15T23:30:31.171Z,19.07
2018-07-15T23:32:59.947Z,19.47
2018-07-15T23:35:28.406Z,17.60
2018-07-15T23:37:56.665Z,18.07
2018-07-15T23:40:25.224Z,20.30
2018-07-15T23:42:54.600Z,18.63
2018-07-15T23:45:23.821Z,19.43
2018-07-15T23:47:52.504Z,20.03
2018-07-15T23:50:20.922Z,21.30
2018-07-15T23:52:49.333Z,22.33
2018-07-15T23:55:17.771Z,25.37
2018-07-15T23:57:46.230Z,24.20
